Jordan Mines, Virginia
Current Conditions -  °F | °C
As of 9:15 PM on Monday 22 Dec 2014 (Local Time) from KHSP Reporting Station
Light Snow Light Snow  
Wind Chill: 27°   Ceiling: 100
Heat Index: 33°   Visibility: 0mi
Dew Point: 33°   Wind: 8mph
Humidity: 100%   Direction: 120°ESE
Pressure: 29.96"   Gusts: NA
Location:  37.7731°N, 80.0632°W
Report Text: KHSP 230215Z AUTO 12007KT M1/4SM -SN OVC001 01/01 A2996 RMK AO2 T00080008
Loading
Personal Weather Stations






























Interactive Weather Map New forecast layout! Learn more

10-Day Weather Forecast

Advertisements
Track Severe Weather on mobile